KPLN/PLN METAR and TAF weather

Enter ICAO airport designator
Station Type Date Time Source
KPLN METAR 2019/02/16 01:30 UTC NOAA

KPLN 160130Z AUTO 31016G22KT 10SM FEW014 SCT021 OVC031 M06/M08 A2989 RMK AO2 T10561083


Station Type Date Time Source
KPLN Decoded METAR 2019/02/16 01:30 UTC NOAA

PELLSTON REGIONAL AIRPORT, MI, United States (KPLN) 45-34N 084-48W 217M
Feb 15, 2019 - 08:30 PM EST / 2019.02.16 0130 UTC
Wind: from the NW (310 degrees) at 18 MPH (16 KT) gusting to 25 MPH (22 KT):0
Visibility: 10 mile(s):0
Sky conditions: overcast
Temperature: 21.9 F (-5.6 C)
Windchill: 6 F (-14 C):1
Dew Point: 17.1 F (-8.3 C)
Relative Humidity: 81%
Pressure (altimeter): 29.89 in. Hg (1012 hPa)
ob: KPLN 160130Z AUTO 31016G22KT 10SM FEW014 SCT021 OVC031 M06/M08 A2989 RMK AO2 T10561083
cycle: 1

Station Type Date Time Source
KPLN TAF 2019/02/15 18:42 UTC NOAA

TAF KPLN 151739Z 1518/1618 29018G32KT 5SM -SHSN SCT016 BKN029
TEMPO 1518/1520 2SM -SHSN BKN016
FM152000 30018G30KT P6SM VCSH OVC020
FM160300 31010G18KT P6SM OVC025
FM160800 32006KT P6SM BKN250


Example: see airport list